createdAt,value
2023-05-24T09:45:47.539Z,52.35
2023-05-24T09:48:15.356Z,48.77
2023-05-24T09:50:42.725Z,47.88
2023-05-24T09:53:09.604Z,47.41
2023-05-24T09:55:37.319Z,46.75
2023-05-24T09:58:06.212Z,46.93
2023-05-24T10:00:41.367Z,47.08
2023-05-24T10:03:11.596Z,47.21
2023-05-24T10:05:42.713Z,47.47
2023-05-24T10:08:10.097Z,48.46
2023-05-24T10:10:36.952Z,48.76
2023-05-24T10:13:03.920Z,49.20
2023-05-24T10:15:30.916Z,50.88
2023-05-24T10:17:59.009Z,51.77
2023-05-24T10:20:26.764Z,52.90
2023-05-24T10:22:59.365Z,53.56
2023-05-24T10:25:28.479Z,54.68
2023-05-24T10:28:01.447Z,55.00
2023-05-24T10:31:12.224Z,55.80
2023-05-24T10:33:40.771Z,55.59
2023-05-24T10:36:15.499Z,55.70
2023-05-24T10:38:48.238Z,55.13
2023-05-24T10:41:15.503Z,55.47
2023-05-24T10:43:56.777Z,55.16
2023-05-24T10:46:33.544Z,54.29
2023-05-24T10:49:01.790Z,51.38
2023-05-24T10:51:40.766Z,50.78
2023-05-24T10:54:11.598Z,49.55
2023-05-24T10:56:43.968Z,49.48
2023-05-24T10:59:22.926Z,50.46
2023-05-24T11:02:00.753Z,50.53
2023-05-24T11:04:31.947Z,49.43
2023-05-24T11:07:09.468Z,48.52
2023-05-24T11:09:37.728Z,49.14
2023-05-24T11:12:08.209Z,49.31
2023-05-24T11:14:39.593Z,50.64
2023-05-24T11:17:07.807Z,50.17
2023-05-24T11:19:38.056Z,49.06
2023-05-24T11:22:07.572Z,47.74
2023-05-24T11:24:35.022Z,47.19
2023-05-24T11:27:06.085Z,46.77
2023-05-24T11:29:34.355Z,45.81
2023-05-24T11:32:04.542Z,45.62
2023-05-24T11:34:32.235Z,45.88
2023-05-24T11:37:00.222Z,45.83
2023-05-24T11:39:35.341Z,46.45
2023-05-24T11:42:05.228Z,46.32
2023-05-24T11:44:32.776Z,45.91
2023-05-24T11:47:03.429Z,46.32
2023-05-24T11:49:30.032Z,46.86
2023-05-24T11:51:58.661Z,46.02
2023-05-24T11:54:28.878Z,45.82
2023-05-24T11:56:55.653Z,45.17
2023-05-24T11:59:31.680Z,44.82
2023-05-24T12:02:02.833Z,43.14
2023-05-24T12:04:30.520Z,44.24
2023-05-24T12:06:57.803Z,43.31
2023-05-24T12:09:25.330Z,43.59
2023-05-24T12:11:52.812Z,43.46
2023-05-24T12:14:23.426Z,43.39
2023-05-24T12:16:50.084Z,43.40
2023-05-24T12:19:32.474Z,42.79
2023-05-24T12:22:00.793Z,41.76
2023-05-24T12:24:28.040Z,41.79
2023-05-24T12:27:01.639Z,41.54
2023-05-24T12:29:33.064Z,40.71
2023-05-24T12:31:59.915Z,40.93
2023-05-24T12:34:26.556Z,40.64
2023-05-24T12:36:53.669Z,40.29
2023-05-24T12:39:37.652Z,41.24
2023-05-24T12:42:04.925Z,41.71
2023-05-24T12:44:33.948Z,42.07
2023-05-24T12:47:02.599Z,42.63
2023-05-24T12:49:29.768Z,42.71
2023-05-24T12:51:57.166Z,42.14
2023-05-24T12:54:25.910Z,41.35
2023-05-24T12:56:56.544Z,42.19
2023-05-24T12:59:24.130Z,40.25
2023-05-24T13:01:51.893Z,40.45
2023-05-24T13:04:21.692Z,40.39
2023-05-24T13:06:49.317Z,39.81
2023-05-24T13:09:19.286Z,40.00
2023-05-24T13:11:46.495Z,39.89
2023-05-24T13:14:13.350Z,40.01
2023-05-24T13:16:39.989Z,39.22
2023-05-24T13:19:06.639Z,38.96
2023-05-24T13:21:33.622Z,38.35
2023-05-24T13:24:00.585Z,38.22
2023-05-24T13:26:27.568Z,37.88
2023-05-24T13:29:26.608Z,38.12
2023-05-24T13:31:41.875Z,38.80
2023-05-24T13:34:15.709Z,39.26
2023-05-24T13:36:43.099Z,39.44
2023-05-24T13:39:15.786Z,39.38
2023-05-24T13:41:44.553Z,39.21
2023-05-24T13:44:15.601Z,39.20
2023-05-24T13:46:42.981Z,39.48
2023-05-24T13:49:10.840Z,38.75
2023-05-24T13:51:38.102Z,38.31
2023-05-24T13:54:07.086Z,37.82
2023-05-24T13:56:34.318Z,37.83
2023-05-24T13:59:02.673Z,38.37
2023-05-24T14:01:31.343Z,38.99
2023-05-24T14:03:58.452Z,38.59
2023-05-24T14:06:25.403Z,37.57
2023-05-24T14:08:52.279Z,37.47
2023-05-24T14:11:19.619Z,36.83
2023-05-24T14:16:16.503Z,35.96
2023-05-24T14:18:43.676Z,36.18
2023-05-24T14:21:10.594Z,36.13
2023-05-24T14:23:37.678Z,35.75
2023-05-24T14:26:04.267Z,35.92
2023-05-24T14:28:30.920Z,36.14
2023-05-24T14:30:57.486Z,35.71
2023-05-24T14:33:24.063Z,35.61
2023-05-24T14:35:51.671Z,35.29
2023-05-24T14:38:18.657Z,36.53
2023-05-24T14:40:47.586Z,35.88
2023-05-24T14:43:14.462Z,36.53
2023-05-24T14:45:42.044Z,36.93
2023-05-24T14:48:13.273Z,37.04
2023-05-24T14:50:41.143Z,35.53
2023-05-24T14:53:11.664Z,35.11
2023-05-24T14:55:39.030Z,35.97
2023-05-24T14:58:09.122Z,34.57
2023-05-24T15:00:36.840Z,32.89
2023-05-24T15:03:05.924Z,32.65
2023-05-24T15:05:33.096Z,33.24
2023-05-24T15:07:59.757Z,32.79
2023-05-24T15:10:26.645Z,32.90
2023-05-24T15:12:53.218Z,33.49
2023-05-24T15:15:22.691Z,34.22
2023-05-24T15:17:49.526Z,32.24
2023-05-24T15:20:16.505Z,32.83
2023-05-24T15:22:43.665Z,33.21
2023-05-24T15:25:11.250Z,34.84
2023-05-24T15:27:38.063Z,33.11
2023-05-24T15:30:05.320Z,33.42
2023-05-24T15:32:31.914Z,33.35
2023-05-24T15:35:00.354Z,32.68
2023-05-24T15:37:27.153Z,33.13
2023-05-24T15:39:54.058Z,32.89
2023-05-24T15:42:21.510Z,32.13
2023-05-24T15:44:48.104Z,32.06
2023-05-24T15:47:14.738Z,31.47
2023-05-24T15:49:41.344Z,30.09
2023-05-24T15:52:08.220Z,31.16
2023-05-24T15:54:34.969Z,30.85
2023-05-24T15:57:02.345Z,31.47
2023-05-24T15:59:29.063Z,31.37
2023-05-24T16:01:56.482Z,31.90
2023-05-24T16:04:23.156Z,32.23
2023-05-24T16:06:49.802Z,31.72
2023-05-24T16:09:16.488Z,32.06
2023-05-24T16:11:43.095Z,31.70
2023-05-24T16:14:10.315Z,32.08
2023-05-24T16:16:37.817Z,30.36
2023-05-24T16:19:04.673Z,30.84
2023-05-24T16:21:32.639Z,30.42
2023-05-24T16:24:01.610Z,30.01
2023-05-24T16:26:30.668Z,30.20
2023-05-24T16:28:57.683Z,31.03
2023-05-24T16:31:24.547Z,31.10
2023-05-24T16:33:51.403Z,30.56
2023-05-24T16:36:17.997Z,31.02
